Terminal Aerodrome Forecast
Issued by NWS Boise, ID

Home | Current Version | Previous Version | Text Only | Print | Product List | Glossary On
Versions: 1 2 3 4 5 6 7 8 9 10 11 12 13 14 15 16 17 18 19 20 21 22 23 24 25 26 27
000
FTUS45 KBOI 242320
TAFBNO
TAF
KBNO 242320Z 2500/2524 26010KT P6SM SCT200
     FM250900 26008KT P6SM VCSH SCT050 BKN100
      TEMPO 2512/2516 -SHRA
     FM252000 26011KT P6SM BKN080=

USA.gov is the U.S. government's official web portal to all federal, state and local government web resources and services.